Time;durP1;ratioP1;P1;durP2;ratioP2;P2;SDS_P1;SDS_P2;PMS_P1;PMS_P2;Temp;Humidity;BMP_temperature;BMP_pressure;BME280_temperature;BME280_humidity;BME280_pressure;Samples;Min_cycle;Max_cycle;Signal;HPM_P1;HPM_P2
2023/04/08 00:01:22;;;;;;;12.68;8.77;;;;;;;;;;4978743;28;20185;-76
2023/04/08 00:03:47;;;;;;;12.63;9.07;;;;;;;;;;4980298;28;20045;-74
2023/04/08 00:06:12;;;;;;;11.95;8.40;;;;;;;;;;4991429;28;20127;-73
2023/04/08 00:08:38;;;;;;;11.60;8.50;;;;;;;;;;4979369;28;20050;-73
2023/04/08 00:11:03;;;;;;;13.35;8.48;;;;;;;;;;4978546;28;20103;-75
2023/04/08 00:13:29;;;;;;;13.25;8.10;;;;;;;;;;4981839;28;20099;-73
2023/04/08 00:15:54;;;;;;;10.60;8.25;;;;;;;;;;4978180;28;20121;-73
2023/04/08 00:18:20;;;;;;;13.60;8.70;;;;;;;;;;4969657;28;20496;-73
2023/04/08 00:20:45;;;;;;;13.90;9.38;;;;;;;;;;4978348;28;20038;-73
2023/04/08 00:23:11;;;;;;;14.20;8.82;;;;;;;;;;4976998;28;20050;-73
2023/04/08 00:25:36;;;;;;;11.35;8.30;;;;;;;;;;4995687;28;20044;-73
2023/04/08 00:28:02;;;;;;;12.07;8.20;;;;;;;;;;4981215;28;20042;-74
2023/04/08 00:30:27;;;;;;;16.00;9.35;;;;;;;;;;4977990;28;20046;-73
2023/04/08 00:32:53;;;;;;;12.90;9.10;;;;;;;;;;4977782;28;20070;-73
2023/04/08 00:35:19;;;;;;;14.50;9.15;;;;;;;;;;4974618;28;20492;-75
2023/04/08 00:37:44;;;;;;;13.75;8.90;;;;;;;;;;4994279;28;20088;-74
2023/04/08 00:40:10;;;;;;;14.10;8.75;;;;;;;;;;4969006;28;20045;-73
2023/04/08 00:42:36;;;;;;;14.55;9.43;;;;;;;;;;4975639;28;20078;-75
2023/04/08 00:45:02;;;;;;;13.82;8.35;;;;;;;;;;4985239;28;20146;-73
2023/04/08 00:47:28;;;;;;;13.20;8.43;;;;;;;;;;4992205;28;20050;-75
2023/04/08 00:49:53;;;;;;;12.90;8.82;;;;;;;;;;4981231;28;20042;-73
2023/04/08 00:52:19;;;;;;;13.07;9.20;;;;;;;;;;4994364;28;20474;-75
2023/04/08 00:54:44;;;;;;;11.77;8.40;;;;;;;;;;4992254;28;20483;-73
2023/04/08 00:57:10;;;;;;;12.40;8.35;;;;;;;;;;4979432;28;21079;-74
2023/04/08 00:59:35;;;;;;;11.57;8.32;;;;;;;;;;4995559;28;20097;-73
2023/04/08 01:02:25;;;;;;;11.60;8.15;;;;;;;;;;4977524;28;20046;-74
2023/04/08 01:05:02;;;;;;;10.25;6.50;;;;;;;;;;4961251;28;20403;-74
2023/04/08 01:07:31;;;;;;;14.90;8.20;;;;;;;;;;4986484;28;20049;-73
2023/04/08 01:10:03;;;;;;;12.30;8.13;;;;;;;;;;4966601;28;20082;-75
2023/04/08 01:12:30;;;;;;;9.55;6.63;;;;;;;;;;4987470;28;20056;-73
2023/04/08 01:15:02;;;;;;;8.32;6.18;;;;;;;;;;4969019;28;20074;-73
2023/04/08 01:17:29;;;;;;;9.63;6.53;;;;;;;;;;4966664;28;20058;-75
2023/04/08 01:19:58;;;;;;;9.88;7.40;;;;;;;;;;4973549;28;20038;-76
2023/04/08 01:22:32;;;;;;;5.88;4.40;;;;;;;;;;4994203;28;20047;-74
2023/04/08 01:25:06;;;;;;;8.38;6.25;;;;;;;;;;4972825;28;20097;-74
2023/04/08 01:27:33;;;;;;;13.63;7.13;;;;;;;;;;4995033;28;20708;-74
2023/04/08 01:30:02;;;;;;;9.55;6.10;;;;;;;;;;4976061;28;20077;-73
2023/04/08 01:32:31;;;;;;;7.07;5.13;;;;;;;;;;4972867;28;20448;-73
2023/04/08 01:34:58;;;;;;;7.40;5.57;;;;;;;;;;4991590;28;20495;-75
2023/04/08 01:37:29;;;;;;;9.60;5.40;;;;;;;;;;4975603;28;20101;-73
2023/04/08 01:39:55;;;;;;;7.20;5.93;;;;;;;;;;4979124;28;20143;-76
2023/04/08 01:42:24;;;;;;;9.32;5.47;;;;;;;;;;4967842;28;20153;-74
2023/04/08 01:44:51;;;;;;;5.93;5.32;;;;;;;;;;4978322;28;20046;-73
2023/04/08 01:47:18;;;;;;;6.78;5.28;;;;;;;;;;4977010;28;20050;-73
2023/04/08 01:49:44;;;;;;;6.15;5.07;;;;;;;;;;4994845;28;20073;-73
2023/04/08 01:52:10;;;;;;;4.15;3.40;;;;;;;;;;4975263;28;20046;-74
2023/04/08 01:54:36;;;;;;;8.40;5.13;;;;;;;;;;4994521;28;20046;-73
2023/04/08 01:57:07;;;;;;;5.80;3.95;;;;;;;;;;4980943;28;20038;-73
2023/04/08 01:59:35;;;;;;;11.57;4.75;;;;;;;;;;4982705;28;20128;-74
2023/04/08 02:02:04;;;;;;;4.72;3.50;;;;;;;;;;4994374;28;20905;-73
2023/04/08 02:04:29;;;;;;;8.77;5.18;;;;;;;;;;4993835;28;20046;-75
2023/04/08 02:06:56;;;;;;;4.03;3.65;;;;;;;;;;4998441;28;20034;-73
2023/04/08 02:09:21;;;;;;;5.53;4.35;;;;;;;;;;4982140;28;20511;-73
2023/04/08 02:11:47;;;;;;;8.07;5.50;;;;;;;;;;4996474;28;20082;-75
2023/04/08 02:14:12;;;;;;;11.35;5.75;;;;;;;;;;4959490;28;20078;-73
2023/04/08 02:16:51;;;;;;;5.25;4.38;;;;;;;;;;4991742;28;20055;-73
2023/04/08 02:19:24;;;;;;;6.97;5.05;;;;;;;;;;4977700;28;20451;-73
2023/04/08 02:21:56;;;;;;;8.73;6.82;;;;;;;;;;4983186;28;20054;-73
2023/04/08 02:24:21;;;;;;;6.60;4.50;;;;;;;;;;4972789;28;20051;-73
2023/04/08 02:26:50;;;;;;;7.38;5.32;;;;;;;;;;4996933;28;20061;-74
2023/04/08 02:29:17;;;;;;;13.02;6.75;;;;;;;;;;4980602;28;20085;-74
2023/04/08 02:31:43;;;;;;;7.22;6.20;;;;;;;;;;4978233;28;20490;-74
2023/04/08 02:34:09;;;;;;;6.05;4.97;;;;;;;;;;4975602;28;20093;-74
2023/04/08 02:36:35;;;;;;;5.60;4.38;;;;;;;;;;4979419;28;20053;-74
2023/04/08 02:39:02;;;;;;;8.48;6.43;;;;;;;;;;4997660;28;20042;-73
2023/04/08 02:41:29;;;;;;;8.50;5.07;;;;;;;;;;4982986;28;20081;-73
2023/04/08 02:43:54;;;;;;;9.38;6.55;;;;;;;;;;4991012;28;20089;-75
2023/04/08 02:46:20;;;;;;;11.23;6.68;;;;;;;;;;4977062;28;20054;-75
2023/04/08 02:48:46;;;;;;;7.18;5.57;;;;;;;;;;4979034;28;20057;-74
2023/04/08 02:51:11;;;;;;;8.32;5.88;;;;;;;;;;4983114;28;20057;-73
2023/04/08 02:53:37;;;;;;;9.90;6.60;;;;;;;;;;4965455;28;20866;-75
2023/04/08 02:56:02;;;;;;;5.28;4.78;;;;;;;;;;4990707;28;20042;-75
2023/04/08 02:58:27;;;;;;;7.40;5.75;;;;;;;;;;4981527;28;20046;-73
2023/04/08 03:00:53;;;;;;;8.30;6.35;;;;;;;;;;4978532;28;20049;-74
2023/04/08 03:03:18;;;;;;;8.38;5.75;;;;;;;;;;4980406;28;20046;-72
2023/04/08 03:05:44;;;;;;;10.43;5.88;;;;;;;;;;4991411;28;20046;-73
2023/04/08 03:08:09;;;;;;;10.48;6.28;;;;;;;;;;4980942;28;20038;-74
2023/04/08 03:10:35;;;;;;;9.45;6.15;;;;;;;;;;4972582;28;20594;-73
2023/04/08 03:13:00;;;;;;;12.05;5.18;;;;;;;;;;4993603;28;20050;-73
2023/04/08 03:15:26;;;;;;;11.75;7.00;;;;;;;;;;4978162;28;20047;-73
2023/04/08 03:17:51;;;;;;;11.35;6.85;;;;;;;;;;4978200;28;20108;-74
2023/04/08 03:20:17;;;;;;;10.45;6.28;;;;;;;;;;4977275;28;20117;-74
2023/04/08 03:22:42;;;;;;;7.18;5.00;;;;;;;;;;4996771;28;20518;-74
2023/04/08 03:25:08;;;;;;;9.77;7.00;;;;;;;;;;4982140;28;20042;-73
2023/04/08 03:27:33;;;;;;;7.95;5.55;;;;;;;;;;4980713;28;20511;-73
2023/04/08 03:29:59;;;;;;;7.72;5.70;;;;;;;;;;4980287;28;20046;-73
2023/04/08 03:32:24;;;;;;;7.85;4.68;;;;;;;;;;4977670;28;20062;-75
2023/04/08 03:34:50;;;;;;;9.20;5.00;;;;;;;;;;4976249;28;20089;-73
2023/04/08 03:37:18;;;;;;;10.07;6.78;;;;;;;;;;4982071;28;20042;-74
2023/04/08 03:39:43;;;;;;;6.78;5.05;;;;;;;;;;4980499;28;20181;-73
2023/04/08 03:42:09;;;;;;;8.90;4.43;;;;;;;;;;4971744;28;20473;-75
2023/04/08 03:44:34;;;;;;;11.88;8.07;;;;;;;;;;4968746;28;20055;-73
2023/04/08 03:47:00;;;;;;;11.25;6.60;;;;;;;;;;4975586;28;20201;-74
2023/04/08 03:49:25;;;;;;;7.03;5.53;;;;;;;;;;4977408;28;20054;-73
2023/04/08 03:51:51;;;;;;;9.35;6.57;;;;;;;;;;4978477;28;20050;-74
2023/04/08 03:54:16;;;;;;;6.85;5.68;;;;;;;;;;4973171;28;20034;-73
2023/04/08 03:56:41;;;;;;;7.78;6.35;;;;;;;;;;4979769;28;20558;-73
2023/04/08 03:59:07;;;;;;;11.48;9.23;;;;;;;;;;4978362;28;20129;-74
2023/04/08 04:01:32;;;;;;;13.30;6.72;;;;;;;;;;4972949;28;20049;-73
2023/04/08 04:03:57;;;;;;;10.70;7.70;;;;;;;;;;4976882;28;20467;-72
2023/04/08 04:06:23;;;;;;;6.03;5.43;;;;;;;;;;4980579;28;20050;-73
2023/04/08 04:08:49;;;;;;;7.93;6.93;;;;;;;;;;4981057;28;20049;-74
2023/04/08 04:11:15;;;;;;;9.63;6.63;;;;;;;;;;4979387;28;20045;-73
2023/04/08 04:13:40;;;;;;;7.57;5.70;;;;;;;;;;4981065;28;20566;-74
2023/04/08 04:16:06;;;;;;;8.40;6.82;;;;;;;;;;4973124;28;20141;-73
2023/04/08 04:18:31;;;;;;;14.15;8.57;;;;;;;;;;4979360;28;20500;-73
2023/04/08 04:20:57;;;;;;;10.13;6.68;;;;;;;;;;4980345;28;20042;-73
2023/04/08 04:23:24;;;;;;;12.32;8.13;;;;;;;;;;4980841;28;20077;-73
2023/04/08 04:25:50;;;;;;;11.77;7.45;;;;;;;;;;4991597;28;20841;-73
2023/04/08 04:28:15;;;;;;;8.93;6.88;;;;;;;;;;4978752;28;20990;-74
2023/04/08 04:30:41;;;;;;;11.15;6.95;;;;;;;;;;4977249;28;20051;-72
2023/04/08 04:33:06;;;;;;;13.02;8.23;;;;;;;;;;4980360;28;20495;-73
2023/04/08 04:35:32;;;;;;;9.23;6.82;;;;;;;;;;4980997;28;20503;-74
2023/04/08 04:37:58;;;;;;;9.52;6.60;;;;;;;;;;4976751;28;20564;-72
2023/04/08 04:40:23;;;;;;;15.45;7.10;;;;;;;;;;4978699;28;20069;-73
2023/04/08 04:42:49;;;;;;;8.05;6.35;;;;;;;;;;4976476;28;20122;-73
2023/04/08 04:45:14;;;;;;;9.13;5.97;;;;;;;;;;4977945;28;20140;-73
2023/04/08 04:47:40;;;;;;;11.82;6.35;;;;;;;;;;4974547;28;20126;-72
2023/04/08 04:50:06;;;;;;;8.93;5.43;;;;;;;;;;4978970;28;20049;-73
2023/04/08 04:52:31;;;;;;;11.18;5.78;;;;;;;;;;4975885;28;20073;-73
2023/04/08 04:54:57;;;;;;;9.57;6.07;;;;;;;;;;4978497;28;20046;-74
2023/04/08 04:57:23;;;;;;;11.98;8.43;;;;;;;;;;4990802;28;20939;-72
2023/04/08 04:59:48;;;;;;;13.98;8.60;;;;;;;;;;4979448;28;20562;-73
2023/04/08 05:02:14;;;;;;;11.52;8.45;;;;;;;;;;4975767;28;20775;-72
2023/04/08 05:04:39;;;;;;;11.98;7.50;;;;;;;;;;4973790;28;20046;-75
2023/04/08 05:07:05;;;;;;;13.90;8.90;;;;;;;;;;4975201;28;20042;-72
2023/04/08 05:09:30;;;;;;;10.95;6.28;;;;;;;;;;4991368;28;20050;-73
2023/04/08 05:11:56;;;;;;;11.98;7.45;;;;;;;;;;4974376;28;20050;-73
2023/04/08 05:14:22;;;;;;;9.90;7.43;;;;;;;;;;4979224;28;20045;-75
2023/04/08 05:16:47;;;;;;;21.83;10.82;;;;;;;;;;4972233;28;20046;-71
2023/04/08 05:19:13;;;;;;;17.15;9.07;;;;;;;;;;4964098;28;20442;-74
2023/04/08 05:21:38;;;;;;;16.08;10.65;;;;;;;;;;4965808;28;20109;-73
2023/04/08 05:24:04;;;;;;;15.05;10.48;;;;;;;;;;4963497;28;20109;-73
2023/04/08 05:26:29;;;;;;;14.20;9.23;;;;;;;;;;4969556;28;20123;-72
2023/04/08 05:28:55;;;;;;;12.90;9.23;;;;;;;;;;4978968;28;20076;-71
2023/04/08 05:31:20;;;;;;;12.68;9.35;;;;;;;;;;4974504;28;20045;-71
2023/04/08 05:33:46;;;;;;;14.68;8.80;;;;;;;;;;4981000;28;20054;-73
2023/04/08 05:36:12;;;;;;;19.70;11.82;;;;;;;;;;4983638;28;20053;-74
2023/04/08 05:38:38;;;;;;;18.17;11.85;;;;;;;;;;4983941;28;20187;-71
2023/04/08 05:41:03;;;;;;;14.57;9.32;;;;;;;;;;4983772;28;20066;-71
2023/04/08 05:43:29;;;;;;;19.63;11.48;;;;;;;;;;4980835;28;20140;-71
2023/04/08 05:45:55;;;;;;;12.82;7.85;;;;;;;;;;4973626;28;20050;-73
2023/04/08 05:48:20;;;;;;;13.60;10.05;;;;;;;;;;4983288;28;20053;-71
2023/04/08 05:50:47;;;;;;;19.90;11.77;;;;;;;;;;4983602;28;20109;-72
2023/04/08 05:53:13;;;;;;;12.82;8.65;;;;;;;;;;4982490;28;20042;-71
2023/04/08 05:55:39;;;;;;;15.48;9.70;;;;;;;;;;4994209;28;20129;-72
2023/04/08 05:58:04;;;;;;;8.95;6.78;;;;;;;;;;4991410;28;20034;-75
2023/04/08 06:00:30;;;;;;;9.68;6.38;;;;;;;;;;4993924;28;20408;-73
2023/04/08 06:02:55;;;;;;;8.07;6.25;;;;;;;;;;4997782;28;20829;-75
2023/04/08 06:05:21;;;;;;;10.93;7.85;;;;;;;;;;4982866;28;20233;-73
2023/04/08 06:07:46;;;;;;;10.65;7.18;;;;;;;;;;4979849;28;20058;-74
2023/04/08 06:10:11;;;;;;;15.23;10.27;;;;;;;;;;4982956;28;20049;-75
2023/04/08 06:12:38;;;;;;;17.15;9.35;;;;;;;;;;4983671;28;20054;-73
2023/04/08 06:15:05;;;;;;;18.50;10.35;;;;;;;;;;4983783;28;20046;-74
2023/04/08 06:17:31;;;;;;;10.07;7.05;;;;;;;;;;4971076;28;20436;-73
2023/04/08 06:19:56;;;;;;;16.85;9.63;;;;;;;;;;4982493;28;20542;-73
2023/04/08 06:22:22;;;;;;;11.43;7.22;;;;;;;;;;4978707;28;20074;-74
2023/04/08 06:24:47;;;;;;;16.90;9.30;;;;;;;;;;4974570;28;20423;-73
2023/04/08 06:27:13;;;;;;;16.02;10.52;;;;;;;;;;4976306;28;20526;-73
2023/04/08 06:29:39;;;;;;;13.95;9.23;;;;;;;;;;4971495;28;20038;-73
2023/04/08 06:32:05;;;;;;;18.48;9.95;;;;;;;;;;4971061;28;20562;-73
2023/04/08 06:34:30;;;;;;;14.57;9.27;;;;;;;;;;4972399;28;20066;-74
2023/04/08 06:36:56;;;;;;;14.98;10.30;;;;;;;;;;4974887;28;20145;-73
2023/04/08 06:39:22;;;;;;;17.33;10.52;;;;;;;;;;4981481;28;20038;-75
2023/04/08 06:41:47;;;;;;;19.90;12.75;;;;;;;;;;4982991;28;20450;-73
2023/04/08 06:44:32;;;;;;;19.25;11.45;;;;;;;;;;4980118;28;20050;-73
2023/04/08 06:46:57;;;;;;;13.93;10.27;;;;;;;;;;4981653;28;20074;-73
2023/04/08 06:49:23;;;;;;;15.25;8.20;;;;;;;;;;4975347;28;20039;-75
2023/04/08 06:51:49;;;;;;;15.82;10.80;;;;;;;;;;4972322;28;20053;-76
2023/04/08 06:54:14;;;;;;;19.15;11.38;;;;;;;;;;4976577;28;20053;-73
2023/04/08 06:56:40;;;;;;;17.75;10.60;;;;;;;;;;4971630;28;20050;-73
2023/04/08 06:59:05;;;;;;;18.38;10.27;;;;;;;;;;4981049;28;20136;-76
2023/04/08 07:01:30;;;;;;;15.15;11.00;;;;;;;;;;4977768;28;20046;-73
2023/04/08 07:03:56;;;;;;;15.77;10.65;;;;;;;;;;4975681;28;20042;-73
2023/04/08 07:06:22;;;;;;;17.42;11.40;;;;;;;;;;4982309;28;20038;-73
2023/04/08 07:08:47;;;;;;;17.98;11.35;;;;;;;;;;4982704;28;20057;-76
2023/04/08 07:11:13;;;;;;;16.35;11.48;;;;;;;;;;4978024;28;20050;-76
2023/04/08 07:13:38;;;;;;;19.60;12.32;;;;;;;;;;4972562;28;20115;-74
2023/04/08 07:16:05;;;;;;;18.63;12.27;;;;;;;;;;4974002;28;20038;-74
2023/04/08 07:18:31;;;;;;;19.48;11.43;;;;;;;;;;4978430;28;20069;-72
2023/04/08 07:20:57;;;;;;;15.85;10.23;;;;;;;;;;4980337;28;20038;-74
2023/04/08 07:27:10;;;;;;;16.08;10.93;;;;;;;;;;4968019;28;20081;-75
2023/04/08 07:29:35;;;;;;;20.77;12.60;;;;;;;;;;4965857;28;20047;-71
2023/04/08 07:32:01;;;;;;;19.05;12.50;;;;;;;;;;4966880;28;20050;-72
2023/04/08 07:34:26;;;;;;;16.75;11.50;;;;;;;;;;4976381;28;20038;-71
2023/04/08 07:36:51;;;;;;;15.02;10.40;;;;;;;;;;4974310;28;20530;-71
2023/04/08 07:39:17;;;;;;;15.25;10.18;;;;;;;;;;4964066;28;20038;-75
2023/04/08 07:41:42;;;;;;;13.73;9.63;;;;;;;;;;4991395;28;20101;-72
2023/04/08 07:44:08;;;;;;;11.77;8.20;;;;;;;;;;4964061;28;20073;-75
2023/04/08 07:46:37;;;;;;;10.48;7.68;;;;;;;;;;4969377;28;20086;-74
2023/04/08 07:49:03;;;;;;;14.98;10.05;;;;;;;;;;4966007;28;20154;-71
2023/04/08 07:51:28;;;;;;;15.43;9.48;;;;;;;;;;4965522;28;20145;-71
2023/04/08 07:53:54;;;;;;;15.55;10.00;;;;;;;;;;4967470;28;20093;-76
2023/04/08 07:56:21;;;;;;;16.02;10.82;;;;;;;;;;4968666;28;20512;-76
2023/04/08 07:58:46;;;;;;;15.18;10.10;;;;;;;;;;4974230;28;20139;-75
2023/04/08 08:01:15;;;;;;;17.50;10.95;;;;;;;;;;4968772;28;20129;-71
2023/04/08 08:03:40;;;;;;;14.20;9.95;;;;;;;;;;4971971;28;20129;-71
2023/04/08 08:06:06;;;;;;;19.48;11.55;;;;;;;;;;4974723;28;20039;-73
2023/04/08 08:08:32;;;;;;;15.85;11.13;;;;;;;;;;4970755;28;20045;-73
2023/04/08 08:10:57;;;;;;;17.65;12.23;;;;;;;;;;4981083;28;20081;-74
2023/04/08 08:13:23;;;;;;;20.52;12.07;;;;;;;;;;4977825;28;20129;-72
2023/04/08 08:15:52;;;;;;;20.33;13.20;;;;;;;;;;4972215;28;20077;-75
2023/04/08 08:18:18;;;;;;;19.25;10.70;;;;;;;;;;4969935;28;20046;-74
2023/04/08 08:20:43;;;;;;;19.13;11.55;;;;;;;;;;4978206;28;20038;-70
2023/04/08 08:23:08;;;;;;;16.67;11.90;;;;;;;;;;4974279;28;20514;-75
2023/04/08 08:25:34;;;;;;;11.02;8.23;;;;;;;;;;4978211;28;20054;-72
2023/04/08 08:27:59;;;;;;;20.08;12.13;;;;;;;;;;4974918;28;20066;-72
2023/04/08 08:30:25;;;;;;;19.67;11.70;;;;;;;;;;4977561;28;20046;-74
2023/04/08 08:32:51;;;;;;;18.23;11.40;;;;;;;;;;4980042;28;20499;-75
2023/04/08 08:35:16;;;;;;;20.13;12.45;;;;;;;;;;4977540;28;20039;-76
2023/04/08 08:37:42;;;;;;;18.95;12.13;;;;;;;;;;4971391;28;20458;-75
2023/04/08 08:40:08;;;;;;;20.33;12.63;;;;;;;;;;4974566;28;20042;-72
2023/04/08 08:42:34;;;;;;;20.92;12.45;;;;;;;;;;4974521;28;20050;-72
2023/04/08 08:45:02;;;;;;;21.65;12.68;;;;;;;;;;4974444;28;20065;-71
2023/04/08 08:47:29;;;;;;;19.05;12.27;;;;;;;;;;4967149;28;20049;-76
2023/04/08 08:49:55;;;;;;;14.52;9.88;;;;;;;;;;4971065;28;20086;-72
2023/04/08 08:52:20;;;;;;;20.17;12.70;;;;;;;;;;4974087;28;20153;-71
2023/04/08 08:54:46;;;;;;;17.45;12.00;;;;;;;;;;4973080;28;20094;-73
2023/04/08 08:57:18;;;;;;;18.35;12.35;;;;;;;;;;4973572;28;20134;-75
2023/04/08 08:59:47;;;;;;;23.65;13.57;;;;;;;;;;4978505;28;20085;-77
2023/04/08 09:02:27;;;;;;;20.90;13.13;;;;;;;;;;4972021;28;20492;-74
2023/04/08 09:04:57;;;;;;;21.23;13.20;;;;;;;;;;4975293;28;20074;-69
2023/04/08 09:07:25;;;;;;;20.23;13.48;;;;;;;;;;4973525;28;20488;-72
2023/04/08 09:09:52;;;;;;;19.08;12.38;;;;;;;;;;4978898;28;20050;-72
2023/04/08 09:12:18;;;;;;;21.55;13.85;;;;;;;;;;4974325;28;20058;-70
2023/04/08 09:14:44;;;;;;;21.55;12.45;;;;;;;;;;4977509;28;20065;-71
2023/04/08 09:17:10;;;;;;;19.17;12.98;;;;;;;;;;4971595;28;20054;-73
2023/04/08 09:19:35;;;;;;;22.92;13.18;;;;;;;;;;4977716;28;20045;-71
2023/04/08 09:22:10;;;;;;;20.25;13.75;;;;;;;;;;4979437;28;20512;-72
2023/04/08 09:24:36;;;;;;;19.95;13.73;;;;;;;;;;4976180;28;20128;-72
2023/04/08 09:27:08;;;;;;;21.92;13.75;;;;;;;;;;4986657;28;20636;-72
2023/04/08 09:29:34;;;;;;;19.63;13.65;;;;;;;;;;4970375;28;20047;-77
2023/04/08 09:32:00;;;;;;;19.52;13.07;;;;;;;;;;4971761;28;20046;-75
2023/04/08 09:34:27;;;;;;;20.58;13.23;;;;;;;;;;4969423;28;20808;-77
2023/04/08 09:36:54;;;;;;;16.52;11.40;;;;;;;;;;4975331;28;20571;-73
2023/04/08 09:39:20;;;;;;;22.40;13.63;;;;;;;;;;4974814;28;20048;-73
2023/04/08 09:41:50;;;;;;;23.23;15.18;;;;;;;;;;4975341;28;20050;-71
2023/04/08 09:44:17;;;;;;;20.77;14.35;;;;;;;;;;4968534;28;20047;-72
2023/04/08 09:46:48;;;;;;;18.05;12.10;;;;;;;;;;4970039;28;20090;-74
2023/04/08 09:49:36;;;;;;;25.77;14.85;;;;;;;;;;4967420;28;20057;-71
2023/04/08 09:52:07;;;;;;;17.35;12.43;;;;;;;;;;4975328;28;20147;-74
2023/04/08 09:54:50;;;;;;;19.20;11.57;;;;;;;;;;4976763;28;20052;-70
2023/04/08 09:57:25;;;;;;;17.17;11.88;;;;;;;;;;4967122;28;20503;-70
2023/04/08 10:00:03;;;;;;;16.55;10.68;;;;;;;;;;4974562;28;20054;-70
2023/04/08 10:02:45;;;;;;;17.13;11.98;;;;;;;;;;5001515;28;20158;-70
2023/04/08 10:05:13;;;;;;;16.33;12.20;;;;;;;;;;4974081;28;20046;-71
2023/04/08 10:07:39;;;;;;;14.63;10.73;;;;;;;;;;4970259;28;20058;-72
2023/04/08 10:10:06;;;;;;;14.13;9.75;;;;;;;;;;4963898;28;20039;-71
2023/04/08 10:12:32;;;;;;;15.23;11.70;;;;;;;;;;4963132;28;20499;-70
2023/04/08 10:15:32;;;;;;;15.88;11.73;;;;;;;;;;4965380;28;20077;-70
2023/04/08 10:18:06;;;;;;;15.75;10.38;;;;;;;;;;4964272;28;20138;-72
2023/04/08 10:20:35;;;;;;;12.10;9.27;;;;;;;;;;4981370;28;20062;-70
2023/04/08 10:23:07;;;;;;;13.02;9.57;;;;;;;;;;4968798;28;20046;-72
2023/04/08 10:25:34;;;;;;;13.45;9.65;;;;;;;;;;4968441;28;20047;-73
2023/04/08 10:28:18;;;;;;;12.77;9.27;;;;;;;;;;4969098;28;20047;-70
2023/04/08 10:30:47;;;;;;;16.42;10.18;;;;;;;;;;4980299;28;20174;-70
2023/04/08 10:33:18;;;;;;;15.95;11.23;;;;;;;;;;4968903;28;20046;-73
2023/04/08 10:35:58;;;;;;;14.90;9.13;;;;;;;;;;4967591;28;20164;-71
2023/04/08 10:38:24;;;;;;;17.85;11.52;;;;;;;;;;4967716;28;20042;-74
2023/04/08 10:40:50;;;;;;;16.92;10.63;;;;;;;;;;4969297;28;20047;-70
2023/04/08 10:43:16;;;;;;;15.25;10.00;;;;;;;;;;4970480;28;20987;-74
2023/04/08 10:45:42;;;;;;;15.57;11.25;;;;;;;;;;4967404;28;20483;-71
2023/04/08 10:48:23;;;;;;;16.95;11.15;;;;;;;;;;4970174;28;20062;-70
2023/04/08 10:51:15;;;;;;;14.30;9.30;;;;;;;;;;4966082;28;20194;-72
2023/04/08 10:53:41;;;;;;;17.63;10.82;;;;;;;;;;4968528;28;20114;-70
2023/04/08 10:56:07;;;;;;;14.48;10.77;;;;;;;;;;4972032;28;20104;-74
2023/04/08 10:58:33;;;;;;;17.08;11.02;;;;;;;;;;4967798;28;20054;-70
2023/04/08 11:01:06;;;;;;;14.38;10.57;;;;;;;;;;4968960;28;20424;-73
2023/04/08 11:03:33;;;;;;;13.70;8.70;;;;;;;;;;4969520;28;20171;-72
2023/04/08 11:05:59;;;;;;;15.55;12.00;;;;;;;;;;4967698;28;20070;-70
2023/04/08 11:08:31;;;;;;;16.20;11.00;;;;;;;;;;4963836;28;20090;-70
2023/04/08 11:11:00;;;;;;;16.42;11.32;;;;;;;;;;4968925;28;20078;-70
2023/04/08 11:13:26;;;;;;;15.18;11.90;;;;;;;;;;4970911;28;20085;-74
2023/04/08 11:15:52;;;;;;;15.25;11.07;;;;;;;;;;4976810;28;20061;-70
2023/04/08 11:18:18;;;;;;;16.48;11.40;;;;;;;;;;4973864;28;20042;-74
2023/04/08 11:20:43;;;;;;;18.58;13.55;;;;;;;;;;4976492;28;20417;-74
2023/04/08 11:23:16;;;;;;;18.88;13.20;;;;;;;;;;4964353;28;20427;-72
2023/04/08 11:25:43;;;;;;;21.83;13.05;;;;;;;;;;4967625;28;20043;-71
2023/04/08 11:28:08;;;;;;;18.35;12.77;;;;;;;;;;4967557;28;20046;-71
2023/04/08 11:30:34;;;;;;;17.20;12.52;;;;;;;;;;4966710;28;20062;-71
2023/04/08 11:33:00;;;;;;;14.75;11.98;;;;;;;;;;4972685;28;20105;-73
2023/04/08 11:35:29;;;;;;;20.08;13.25;;;;;;;;;;4974358;28;20125;-70
2023/04/08 11:37:56;;;;;;;19.27;12.35;;;;;;;;;;4967676;28;20038;-71
2023/04/08 11:40:22;;;;;;;19.63;14.32;;;;;;;;;;4968472;28;20043;-74
2023/04/08 11:42:49;;;;;;;14.70;11.30;;;;;;;;;;4972048;28;20054;-70
2023/04/08 11:45:16;;;;;;;21.67;14.30;;;;;;;;;;4975071;28;20925;-71
2023/04/08 11:47:42;;;;;;;20.15;14.48;;;;;;;;;;4968506;28;20070;-72
2023/04/08 11:50:08;;;;;;;16.88;12.35;;;;;;;;;;4992156;28;20137;-72
2023/04/08 11:52:47;;;;;;;18.02;12.10;;;;;;;;;;4975529;28;20051;-72
2023/04/08 11:55:27;;;;;;;18.00;12.27;;;;;;;;;;4973045;28;20073;-71
2023/04/08 11:57:54;;;;;;;18.45;12.25;;;;;;;;;;4964856;28;20043;-72
2023/04/08 12:00:20;;;;;;;17.55;11.25;;;;;;;;;;4971493;28;20042;-71
2023/04/08 12:02:49;;;;;;;18.08;12.30;;;;;;;;;;4971791;28;20122;-72
2023/04/08 12:05:15;;;;;;;21.60;15.15;;;;;;;;;;4964377;28;20049;-70
2023/04/08 12:07:41;;;;;;;20.65;12.73;;;;;;;;;;4966898;28;20050;-71
2023/04/08 12:10:08;;;;;;;21.67;14.50;;;;;;;;;;4963714;28;20045;-72
2023/04/08 12:12:34;;;;;;;19.33;12.80;;;;;;;;;;4969603;28;20062;-72
2023/04/08 12:14:59;;;;;;;17.60;12.70;;;;;;;;;;4973666;28;20043;-71
2023/04/08 12:17:25;;;;;;;17.48;11.77;;;;;;;;;;4971060;28;20507;-74
2023/04/08 12:19:50;;;;;;;17.45;12.02;;;;;;;;;;4974127;28;20050;-70
2023/04/08 12:22:16;;;;;;;14.45;10.32;;;;;;;;;;4971108;28;20091;-70
2023/04/08 12:24:42;;;;;;;20.60;15.07;;;;;;;;;;4972485;28;20053;-70
2023/04/08 12:27:07;;;;;;;16.92;11.27;;;;;;;;;;4971647;28;20046;-70
2023/04/08 12:29:33;;;;;;;15.10;10.68;;;;;;;;;;4971284;28;20046;-73
2023/04/08 12:31:59;;;;;;;15.65;10.88;;;;;;;;;;4971671;28;20045;-70
2023/04/08 12:34:24;;;;;;;12.32;10.15;;;;;;;;;;4970457;28;20049;-70
2023/04/08 12:36:50;;;;;;;12.40;9.25;;;;;;;;;;4970432;28;20046;-71
2023/04/08 12:39:15;;;;;;;12.73;9.15;;;;;;;;;;4968585;28;20452;-72
2023/04/08 12:41:41;;;;;;;12.85;9.98;;;;;;;;;;4966341;28;20123;-71
2023/04/08 12:44:06;;;;;;;14.23;10.48;;;;;;;;;;4967602;28;20066;-71
2023/04/08 12:46:32;;;;;;;11.20;8.07;;;;;;;;;;4965869;28;20085;-71
2023/04/08 12:48:57;;;;;;;16.02;10.90;;;;;;;;;;4971909;28;20522;-72
2023/04/08 12:51:24;;;;;;;15.70;10.68;;;;;;;;;;4968654;28;20712;-70
2023/04/08 12:53:50;;;;;;;15.05;10.48;;;;;;;;;;4968476;28;20137;-71
2023/04/08 12:56:16;;;;;;;12.55;9.77;;;;;;;;;;4963181;28;20057;-73
2023/04/08 12:58:41;;;;;;;16.15;9.68;;;;;;;;;;4961609;28;20687;-69
2023/04/08 13:01:07;;;;;;;16.20;11.35;;;;;;;;;;4965353;28;20053;-73
2023/04/08 13:03:33;;;;;;;17.60;11.73;;;;;;;;;;4967090;28;20069;-74
2023/04/08 13:05:59;;;;;;;16.15;10.80;;;;;;;;;;4969671;28;20046;-71
2023/04/08 13:08:25;;;;;;;15.07;8.93;;;;;;;;;;4964333;28;20069;-72
2023/04/08 13:10:50;;;;;;;14.23;9.90;;;;;;;;;;4964446;28;20635;-73
2023/04/08 13:13:15;;;;;;;24.30;12.77;;;;;;;;;;4970730;28;20050;-70
2023/04/08 13:15:42;;;;;;;24.05;12.90;;;;;;;;;;4967629;28;20050;-72
2023/04/08 13:18:08;;;;;;;20.00;12.55;;;;;;;;;;4967738;28;20055;-70
2023/04/08 13:20:34;;;;;;;15.93;10.40;;;;;;;;;;4971974;28;20061;-71
2023/04/08 13:23:00;;;;;;;21.05;12.02;;;;;;;;;;4972486;28;20054;-72
2023/04/08 13:25:25;;;;;;;16.58;10.43;;;;;;;;;;4976212;28;20057;-72
2023/04/08 13:27:51;;;;;;;14.07;10.13;;;;;;;;;;4981656;28;20508;-74
2023/04/08 13:30:16;;;;;;;12.75;9.27;;;;;;;;;;4974210;28;20514;-73
2023/04/08 13:32:42;;;;;;;14.68;9.75;;;;;;;;;;4967676;28;20039;-72
2023/04/08 13:35:07;;;;;;;12.68;8.68;;;;;;;;;;4993669;28;20511;-76
2023/04/08 13:37:33;;;;;;;16.05;10.02;;;;;;;;;;4975535;28;20709;-76
2023/04/08 13:39:58;;;;;;;14.60;10.55;;;;;;;;;;4964334;28;20053;-75
2023/04/08 13:42:24;;;;;;;15.35;10.50;;;;;;;;;;4968315;28;20053;-77
2023/04/08 13:44:49;;;;;;;17.30;11.52;;;;;;;;;;4964023;28;20077;-72
2023/04/08 13:47:16;;;;;;;16.50;10.90;;;;;;;;;;4969812;28;20750;-75
2023/04/08 13:49:41;;;;;;;14.75;10.55;;;;;;;;;;4964865;28;20431;-71
2023/04/08 13:52:06;;;;;;;16.00;11.13;;;;;;;;;;4965575;28;20492;-75
2023/04/08 13:54:32;;;;;;;15.20;10.32;;;;;;;;;;4968207;28;20050;-74
2023/04/08 13:56:57;;;;;;;15.07;11.50;;;;;;;;;;4969433;28;20042;-72
2023/04/08 13:59:23;;;;;;;15.75;11.55;;;;;;;;;;4967138;28;20629;-75
2023/04/08 14:01:52;;;;;;;18.92;11.57;;;;;;;;;;4971650;28;20038;-76
2023/04/08 14:04:19;;;;;;;17.90;12.10;;;;;;;;;;4978009;28;20477;-73
2023/04/08 14:06:45;;;;;;;16.52;11.55;;;;;;;;;;4981370;28;21114;-75
2023/04/08 14:09:11;;;;;;;23.70;12.82;;;;;;;;;;4973766;28;20046;-76
2023/04/08 14:11:36;;;;;;;20.35;12.48;;;;;;;;;;4967851;28;20047;-74
2023/04/08 14:14:02;;;;;;;15.02;10.98;;;;;;;;;;4968802;28;20053;-70
2023/04/08 14:16:29;;;;;;;19.88;11.75;;;;;;;;;;4986040;28;20078;-71
2023/04/08 14:18:55;;;;;;;17.05;12.02;;;;;;;;;;4975957;28;20081;-76
2023/04/08 14:21:21;;;;;;;17.95;12.40;;;;;;;;;;4976059;28;20050;-74
2023/04/08 14:23:47;;;;;;;17.50;11.80;;;;;;;;;;4969966;28;20043;-73
2023/04/08 14:26:12;;;;;;;17.52;11.70;;;;;;;;;;4975018;28;20158;-76
2023/04/08 14:28:38;;;;;;;14.20;10.57;;;;;;;;;;4972037;28;20561;-72